Aldenville, Pennsylvania
Current Conditions -  °F | °C
As of 11:15 AM on Wednesday 26 Nov 2014 (Local Time) from KMSV Reporting Station
Overcast Overcast  
Wind Chill: 23°   Ceiling: 300
Heat Index: 30°   Visibility: 0.5mi
Dew Point: 30°   Wind: 8mph
Humidity: 100%   Direction: 100°E
Pressure: 30.07"   Gusts: NA
Location:  41.65°N, 75.36°W
Report Text: KMSV 261615Z AUTO 10007KT 1/2SM OVC003 M01/M01 A3007 RMK AO1
Loading
Personal Weather Stations






























Interactive Weather Map New forecast layout! Learn more

10-Day Weather Forecast

Advertisements
Track Severe Weather on mobile